KTRL

Details ICAO KTRL
Name TERRELL MUNI
Region United States
Timezone America/Chicago (UTC-5.0)
Plans Departing 12
Arriving 2
Stats Elevation 474 ft / 144 m (AMSL)
Location 32.709395° -96.267477°
Runways 2
Magnetic Variation 2.920° E
Sunrise 2018-05-22 11:23:29 UTC / 2018-05-22 06:23:29 Local
Sunset 2018-05-23 01:22:53 UTC / 2018-05-22 20:22:53 Local
Advertisement - Login to hide

Runways

ID Width Length Bearing (true) Bearing (mag) Surface Threshold Offset Overrun Length
14 75 ft / 23 m 3,018 ft / 920 m 145.30° 142.38° Asphalt 0 ft / 0 m 0 ft / 0 m
17 75 ft / 23 m 5,020 ft / 1,530 m 179.89° 176.97° Asphalt 0 ft / 0 m 0 ft / 0 m
32 75 ft / 23 m 3,018 ft / 920 m 325.31° 322.39° Asphalt 0 ft / 0 m 0 ft / 0 m
35 75 ft / 23 m 5,020 ft / 1,530 m 359.89° 356.97° Asphalt 0 ft / 0 m 0 ft / 0 m

Map

Weather


0- 5 10 15 20 25 30 35+ Temperature / ° C

Clouds and Precipitation
Forecast for 2018-05-22 18:00 UTC. Updated 5 hours ago

Ground ~20,000 ft ~40,000 ft Winds

METAR

KTRL 222153Z AUTO 18007KT 10SM FEW043 SCT060 SCT120 30/19 A2994 RMK AO2 SLP133 T03000194

TAF

Not found

Frequencies

Recorded 119.27 MHz ASOS
Unicom 122.80 MHz CTAF/UNICOM
Warning: Do not use this data for real-world aviation or navigation. No guarantee of current accuracy is given.